createdAt,value
2019-01-19T00:02:15.532Z,1.90
2019-01-19T00:04:57.379Z,2.10
2019-01-19T00:07:33.138Z,2.00
2019-01-19T00:10:32.047Z,2.20
2019-01-19T00:13:21.117Z,2.10
2019-01-19T00:16:05.976Z,1.90
2019-01-19T00:18:58.578Z,1.70
2019-01-19T00:22:05.028Z,1.50
2019-01-19T00:25:11.162Z,1.60
2019-01-19T00:28:04.960Z,1.50
2019-01-19T00:30:56.109Z,1.60
2019-01-19T00:33:37.567Z,1.70
2019-01-19T00:36:52.741Z,1.70
2019-01-19T00:39:40.429Z,1.80
2019-01-19T00:42:18.717Z,1.80
2019-01-19T00:45:20.419Z,1.70
2019-01-19T00:48:08.268Z,1.50
2019-01-19T00:50:56.268Z,1.40
2019-01-19T00:53:52.567Z,1.40
2019-01-19T00:56:40.068Z,1.30
2019-01-19T00:59:12.909Z,1.30
2019-01-19T01:02:17.468Z,1.30
2019-01-19T01:05:07.778Z,1.10
2019-01-19T01:07:59.977Z,1.30
2019-01-19T01:10:53.388Z,1.20
2019-01-19T01:13:44.969Z,1.30
2019-01-19T01:16:29.859Z,1.20
2019-01-19T01:19:17.808Z,1.10
2019-01-19T01:22:23.820Z,1.00
2019-01-19T01:25:08.850Z,1.10
2019-01-19T01:27:56.427Z,1.20
2019-01-19T01:30:40.987Z,1.20
2019-01-19T01:33:42.887Z,1.10
2019-01-19T01:36:30.347Z,1.10
2019-01-19T01:39:21.267Z,1.10
2019-01-19T01:42:09.059Z,1.20
2019-01-19T01:45:03.270Z,1.10
2019-01-19T01:48:00.067Z,1.20
2019-01-19T01:50:38.779Z,1.10
2019-01-19T01:53:23.627Z,1.10
2019-01-19T01:55:50.990Z,1.20
2019-01-19T01:58:23.667Z,1.30
2019-01-19T02:01:02.417Z,1.20
2019-01-19T02:03:56.587Z,1.20
2019-01-19T02:06:44.207Z,1.20
2019-01-19T02:09:34.718Z,1.20
2019-01-19T02:12:28.577Z,1.30
2019-01-19T02:15:01.137Z,1.20
2019-01-19T02:17:39.917Z,1.20
2019-01-19T02:20:30.180Z,1.10
2019-01-19T02:23:29.357Z,1.10
2019-01-19T02:26:23.438Z,1.20
2019-01-19T02:29:08.147Z,1.30
2019-01-19T02:31:59.827Z,1.20
2019-01-19T02:34:53.849Z,1.20
2019-01-19T02:37:32.501Z,1.30
2019-01-19T02:40:11.168Z,1.40
2019-01-19T02:42:53.016Z,1.50
2019-01-19T02:45:51.799Z,1.40
2019-01-19T02:48:45.677Z,1.40
2019-01-19T02:51:27.627Z,1.40
2019-01-19T02:54:06.127Z,1.40
2019-01-19T02:57:04.529Z,1.40
2019-01-19T02:59:51.910Z,1.40
2019-01-19T03:02:33.799Z,1.50
2019-01-19T03:05:18.529Z,1.50
2019-01-19T03:07:51.490Z,1.40
2019-01-19T03:10:45.358Z,1.50
2019-01-19T03:13:36.357Z,1.40
2019-01-19T03:16:32.927Z,1.40
2019-01-19T03:19:35.983Z,1.40
2019-01-19T03:22:39.347Z,1.30
2019-01-19T03:25:24.867Z,1.30
2019-01-19T03:28:13.238Z,1.40
2019-01-19T03:31:12.030Z,1.50
2019-01-19T03:33:59.547Z,1.40
2019-01-19T03:36:41.889Z,1.50
2019-01-19T03:39:37.358Z,1.40
2019-01-19T03:42:26.561Z,1.30
2019-01-19T03:45:08.197Z,1.30
2019-01-19T03:48:10.813Z,1.30
2019-01-19T03:50:46.188Z,1.40
2019-01-19T03:53:28.487Z,1.40
2019-01-19T03:56:16.068Z,1.30
2019-01-19T03:59:33.019Z,1.30
2019-01-19T04:02:34.969Z,1.30
2019-01-19T04:05:25.627Z,1.50
2019-01-19T04:08:29.091Z,1.50
2019-01-19T04:11:20.108Z,1.50
2019-01-19T04:13:58.541Z,1.40
2019-01-19T04:16:54.189Z,1.30
2019-01-19T04:19:35.877Z,1.50
2019-01-19T04:22:12.049Z,1.30
2019-01-19T04:24:50.140Z,1.40
2019-01-19T04:27:17.497Z,1.40
2019-01-19T04:29:44.877Z,1.40
2019-01-19T04:32:12.229Z,1.20
2019-01-19T04:34:39.810Z,1.30
2019-01-19T04:37:07.289Z,1.30
2019-01-19T04:39:34.743Z,1.30
2019-01-19T04:42:02.739Z,1.30
2019-01-19T04:44:30.030Z,1.30
2019-01-19T04:46:57.489Z,1.30
2019-01-19T04:49:24.832Z,1.20
2019-01-19T04:51:52.337Z,1.20
2019-01-19T04:54:20.160Z,1.30
2019-01-19T04:56:47.549Z,1.30
2019-01-19T04:59:14.951Z,1.30
2019-01-19T05:01:42.389Z,1.30
2019-01-19T05:04:09.720Z,1.10
2019-01-19T05:06:37.299Z,1.10
2019-01-19T05:09:06.307Z,1.10
2019-01-19T05:11:33.697Z,1.00
2019-01-19T05:14:01.137Z,1.10
2019-01-19T05:16:28.617Z,1.10
2019-01-19T05:18:56.098Z,1.00
2019-01-19T05:21:23.928Z,1.00
2019-01-19T05:23:52.073Z,0.90
2019-01-19T05:26:19.528Z,1.00
2019-01-19T05:28:46.830Z,0.90
2019-01-19T05:31:14.317Z,0.90
2019-01-19T05:33:41.600Z,0.80
2019-01-19T05:36:09.472Z,0.80
2019-01-19T05:38:36.847Z,0.90
2019-01-19T05:41:04.937Z,0.70
2019-01-19T05:43:32.377Z,0.80
2019-01-19T05:46:00.088Z,0.80
2019-01-19T05:48:27.437Z,0.70
2019-01-19T05:50:55.139Z,0.80
2019-01-19T05:53:22.558Z,0.90
2019-01-19T05:55:50.128Z,1.00
2019-01-19T05:58:17.920Z,0.90
2019-01-19T06:00:45.257Z,1.00
2019-01-19T06:03:12.507Z,1.10
2019-01-19T06:05:41.127Z,1.00
2019-01-19T06:08:08.463Z,0.90
2019-01-19T06:10:36.312Z,1.00
2019-01-19T06:13:03.779Z,1.10
2019-01-19T06:15:31.100Z,1.00
2019-01-19T06:17:58.501Z,0.90
2019-01-19T06:20:25.809Z,0.90
2019-01-19T06:22:53.358Z,1.00
2019-01-19T06:25:20.630Z,0.90
2019-01-19T06:27:47.967Z,1.00
2019-01-19T06:30:21.119Z,1.10
2019-01-19T06:32:48.567Z,1.00
2019-01-19T06:35:17.049Z,1.10
2019-01-19T06:37:44.639Z,1.00
2019-01-19T06:40:14.988Z,1.10
2019-01-19T06:42:42.458Z,1.10
2019-01-19T06:45:19.678Z,1.10
2019-01-19T06:47:46.930Z,1.00
2019-01-19T06:50:15.958Z,1.00
2019-01-19T06:52:43.437Z,1.00
2019-01-19T06:55:18.077Z,0.90
2019-01-19T06:57:45.468Z,1.00
2019-01-19T07:00:16.448Z,1.10
2019-01-19T07:02:43.907Z,1.20
2019-01-19T07:05:12.197Z,1.10
2019-01-19T07:07:39.538Z,1.10
2019-01-19T07:10:20.297Z,1.20
2019-01-19T07:12:47.947Z,1.20
2019-01-19T07:15:15.577Z,1.20
2019-01-19T07:17:42.987Z,1.20
2019-01-19T07:20:17.547Z,1.10
2019-01-19T07:22:45.368Z,1.20
2019-01-19T07:25:13.569Z,1.20
2019-01-19T07:27:41.098Z,1.30
2019-01-19T07:30:12.700Z,1.40
2019-01-19T07:32:40.307Z,1.30
2019-01-19T07:35:08.007Z,1.50
2019-01-19T07:37:35.528Z,1.50
2019-01-19T07:40:06.798Z,1.50
2019-01-19T07:42:35.519Z,1.50
2019-01-19T07:45:05.039Z,1.60
2019-01-19T07:47:32.858Z,1.60
2019-01-19T07:50:00.254Z,1.70
2019-01-19T07:52:27.548Z,1.80
2019-01-19T07:54:55.089Z,1.70
2019-01-19T07:57:22.461Z,1.80
2019-01-19T07:59:49.890Z,1.80
2019-01-19T08:02:17.054Z,1.80
2019-01-19T08:04:44.367Z,1.80
2019-01-19T08:07:17.272Z,1.70
2019-01-19T08:09:41.527Z,1.80
2019-01-19T08:12:09.050Z,2.00
2019-01-19T08:14:36.538Z,1.90
2019-01-19T08:17:04.227Z,1.90
2019-01-19T08:19:31.607Z,2.00
2019-01-19T08:21:58.948Z,2.20
2019-01-19T08:24:26.498Z,2.20
2019-01-19T08:26:54.635Z,2.20
2019-01-19T08:29:21.968Z,2.30
2019-01-19T08:31:49.581Z,2.30
2019-01-19T08:34:16.848Z,2.50
2019-01-19T08:36:44.691Z,2.60
2019-01-19T08:39:12.036Z,2.60
2019-01-19T08:41:39.403Z,2.70
2019-01-19T08:44:07.837Z,2.70
2019-01-19T08:46:36.567Z,2.80
2019-01-19T08:49:03.978Z,2.80
2019-01-19T08:51:32.537Z,2.90
2019-01-19T08:53:59.920Z,2.80
2019-01-19T08:56:27.298Z,3.00
2019-01-19T08:58:54.762Z,3.20
2019-01-19T09:01:22.378Z,3.30
2019-01-19T09:03:49.928Z,3.20
2019-01-19T09:06:18.379Z,3.20
2019-01-19T09:08:46.047Z,3.40
2019-01-19T09:11:13.547Z,3.70
2019-01-19T09:13:40.571Z,3.70
2019-01-19T09:16:07.917Z,3.80
2019-01-19T09:18:35.439Z,3.70
2019-01-19T09:21:02.837Z,3.70
2019-01-19T09:23:34.093Z,3.80
2019-01-19T09:26:01.468Z,3.80
2019-01-19T09:28:28.769Z,3.80
2019-01-19T09:30:56.047Z,3.90
2019-01-19T09:33:23.787Z,4.10
2019-01-19T09:35:51.357Z,3.90
2019-01-19T09:38:18.779Z,4.20
2019-01-19T09:40:46.468Z,4.20
2019-01-19T09:43:14.387Z,4.30
2019-01-19T09:45:42.255Z,4.30
2019-01-19T09:48:09.807Z,4.20
2019-01-19T09:50:37.297Z,4.30
2019-01-19T09:53:04.890Z,4.00
2019-01-19T09:55:33.337Z,4.40
2019-01-19T09:58:00.498Z,4.30
2019-01-19T10:00:35.499Z,4.50
2019-01-19T10:02:58.019Z,4.70
2019-01-19T10:05:27.208Z,4.80
2019-01-19T10:07:54.777Z,4.80
2019-01-19T10:10:22.418Z,4.80
2019-01-19T10:12:50.327Z,4.80
2019-01-19T10:15:19.496Z,4.80
2019-01-19T10:17:47.186Z,4.70
2019-01-19T10:20:25.874Z,4.60
2019-01-19T10:22:53.559Z,4.60
2019-01-19T10:25:20.978Z,4.80
2019-01-19T10:27:48.439Z,4.80
2019-01-19T10:30:23.319Z,4.90
2019-01-19T10:32:50.947Z,5.00
2019-01-19T10:35:18.448Z,4.90
2019-01-19T10:37:46.472Z,5.10
2019-01-19T10:40:16.408Z,5.00
2019-01-19T10:42:44.311Z,4.80
2019-01-19T10:45:25.039Z,4.90
2019-01-19T10:47:52.668Z,5.10
2019-01-19T10:50:20.479Z,4.60
2019-01-19T10:52:48.719Z,5.00
2019-01-19T10:55:20.087Z,5.00
2019-01-19T10:57:47.822Z,5.10
2019-01-19T11:00:25.358Z,5.00
2019-01-19T11:02:53.527Z,4.90
2019-01-19T11:05:21.407Z,5.00
2019-01-19T11:07:49.739Z,5.00
2019-01-19T11:10:23.020Z,5.10
2019-01-19T11:12:50.520Z,5.20
2019-01-19T11:15:18.619Z,5.30
2019-01-19T11:17:46.267Z,5.10
2019-01-19T11:20:27.570Z,5.10
2019-01-19T11:22:55.438Z,5.30
2019-01-19T11:25:23.007Z,5.40
2019-01-19T11:27:50.348Z,5.40
2019-01-19T11:30:24.467Z,5.20
2019-01-19T11:32:51.959Z,5.40
2019-01-19T11:35:19.387Z,5.00
2019-01-19T11:37:46.762Z,5.20
2019-01-19T11:40:22.411Z,5.30
2019-01-19T11:42:50.198Z,5.30
2019-01-19T11:45:22.508Z,5.30
2019-01-19T11:47:50.517Z,5.50
2019-01-19T11:50:18.292Z,5.80
2019-01-19T11:52:46.361Z,5.80
2019-01-19T11:55:19.619Z,6.00
2019-01-19T11:57:52.539Z,5.70
2019-01-19T12:00:23.623Z,5.80
2019-01-19T12:02:52.197Z,5.90
2019-01-19T12:05:19.777Z,5.70
2019-01-19T12:07:47.509Z,6.00
2019-01-19T12:10:21.809Z,5.90
2019-01-19T12:12:49.261Z,6.10
2019-01-19T12:15:16.867Z,6.00
2019-01-19T12:17:44.515Z,6.00
2019-01-19T12:20:19.191Z,6.10
2019-01-19T12:22:46.800Z,6.30
2019-01-19T12:25:23.769Z,6.20
2019-01-19T12:27:51.208Z,6.20
2019-01-19T12:30:25.658Z,6.20
2019-01-19T12:32:52.799Z,6.10
2019-01-19T12:35:20.162Z,6.00
2019-01-19T12:37:47.987Z,6.10
2019-01-19T12:40:19.897Z,6.00
2019-01-19T12:42:49.388Z,5.90
2019-01-19T12:45:21.799Z,5.90
2019-01-19T12:47:49.037Z,5.90
2019-01-19T12:50:23.660Z,6.00
2019-01-19T12:52:50.998Z,6.40
2019-01-19T12:55:18.848Z,6.40
2019-01-19T12:57:46.608Z,6.30
2019-01-19T13:00:26.481Z,6.40
2019-01-19T13:02:54.974Z,6.40
2019-01-19T13:05:45.399Z,6.40
2019-01-19T13:08:18.063Z,6.50
2019-01-19T13:11:03.396Z,6.00
2019-01-19T13:13:31.557Z,6.20
2019-01-19T13:16:16.539Z,6.10
2019-01-19T13:18:51.757Z,5.90
2019-01-19T13:21:59.637Z,5.90
2019-01-19T13:24:49.260Z,6.10
2019-01-19T13:27:46.340Z,6.00
2019-01-19T13:30:48.358Z,5.90
2019-01-19T13:33:23.906Z,6.00
2019-01-19T13:36:31.376Z,5.90
2019-01-19T13:39:22.178Z,6.00
2019-01-19T13:42:19.316Z,6.00
2019-01-19T13:45:15.486Z,6.00
2019-01-19T13:48:09.547Z,5.90
2019-01-19T13:50:57.517Z,5.70
2019-01-19T13:53:42.957Z,6.30
2019-01-19T13:56:21.239Z,6.00
2019-01-19T13:59:12.742Z,5.80
2019-01-19T14:02:17.605Z,5.80
2019-01-19T14:05:22.899Z,5.80
2019-01-19T14:08:01.228Z,5.80
2019-01-19T14:10:55.232Z,5.80
2019-01-19T14:13:43.397Z,5.70
2019-01-19T14:16:40.308Z,5.50
2019-01-19T14:19:49.668Z,5.60
2019-01-19T14:22:40.734Z,5.30
2019-01-19T14:25:28.539Z,5.50
2019-01-19T14:28:29.853Z,5.50
2019-01-19T14:31:44.833Z,5.30
2019-01-19T14:34:26.626Z,5.20
2019-01-19T14:37:35.383Z,5.20
2019-01-19T14:40:11.571Z,5.10
2019-01-19T14:43:05.440Z,4.80
2019-01-19T14:46:00.613Z,5.00
2019-01-19T14:48:53.780Z,5.00
2019-01-19T14:51:45.239Z,4.70
2019-01-19T14:54:52.820Z,4.60
2019-01-19T14:57:35.679Z,4.80
2019-01-19T15:00:43.547Z,4.80
2019-01-19T15:03:31.149Z,4.90
2019-01-19T15:06:13.495Z,4.90
2019-01-19T15:09:03.993Z,4.90
2019-01-19T15:11:44.721Z,4.70
2019-01-19T15:14:24.173Z,4.70
2019-01-19T15:17:14.821Z,4.50
2019-01-19T15:20:07.682Z,4.50
2019-01-19T15:22:44.166Z,4.50
2019-01-19T15:25:37.225Z,4.50
2019-01-19T15:28:54.857Z,4.50
2019-01-19T15:31:30.627Z,4.50
2019-01-19T15:34:21.518Z,4.30
2019-01-19T15:36:57.160Z,4.20
2019-01-19T15:39:38.556Z,4.20
2019-01-19T15:42:35.307Z,4.30
2019-01-19T15:45:10.887Z,4.20
2019-01-19T15:48:08.498Z,4.20
2019-01-19T15:50:53.458Z,4.00
2019-01-19T15:53:44.017Z,4.10
2019-01-19T15:56:45.047Z,4.20
2019-01-19T15:59:49.877Z,4.10
2019-01-19T16:02:44.968Z,3.90
2019-01-19T16:05:52.599Z,3.80
2019-01-19T16:08:46.438Z,4.00
2019-01-19T16:11:24.898Z,3.90
2019-01-19T16:14:15.837Z,3.80
2019-01-19T16:16:54.709Z,3.80
2019-01-19T16:19:49.657Z,3.70
2019-01-19T16:22:31.318Z,3.70
2019-01-19T16:25:32.336Z,3.70
2019-01-19T16:28:25.928Z,3.70
2019-01-19T16:31:28.366Z,3.70
2019-01-19T16:34:16.067Z,3.70
2019-01-19T16:37:06.898Z,3.80
2019-01-19T16:40:00.678Z,3.80
2019-01-19T16:42:33.567Z,3.70
2019-01-19T16:45:35.058Z,3.70
2019-01-19T16:48:25.467Z,3.70
2019-01-19T16:51:28.328Z,3.60
2019-01-19T16:54:10.647Z,3.60
2019-01-19T16:56:55.601Z,3.70
2019-01-19T16:59:35.359Z,3.70
2019-01-19T17:02:40.997Z,3.60
2019-01-19T17:05:22.720Z,3.60
2019-01-19T17:08:13.457Z,3.60
2019-01-19T17:11:04.168Z,3.60
2019-01-19T17:13:54.439Z,3.50
2019-01-19T17:16:30.348Z,3.50
2019-01-19T17:19:30.388Z,3.50
2019-01-19T17:22:08.907Z,3.30
2019-01-19T17:25:16.649Z,3.30
2019-01-19T17:27:58.195Z,3.30
2019-01-19T17:30:31.069Z,3.20
2019-01-19T17:33:15.747Z,3.20
2019-01-19T17:36:14.218Z,3.20
2019-01-19T17:39:12.947Z,3.30
2019-01-19T17:42:00.667Z,3.30
2019-01-19T17:45:00.197Z,3.40
2019-01-19T17:48:00.267Z,3.40
2019-01-19T17:51:08.187Z,3.30
2019-01-19T17:53:55.726Z,3.30
2019-01-19T17:56:56.439Z,3.30
2019-01-19T17:59:54.778Z,3.30
2019-01-19T18:02:47.970Z,3.20
2019-01-19T18:05:29.897Z,3.20
2019-01-19T18:08:24.276Z,3.20
2019-01-19T18:11:02.658Z,3.00
2019-01-19T18:13:49.593Z,3.10
2019-01-19T18:16:54.187Z,3.00
2019-01-19T18:19:51.028Z,3.10
2019-01-19T18:23:07.337Z,2.90
2019-01-19T18:26:05.528Z,2.90
2019-01-19T18:29:05.810Z,2.90
2019-01-19T18:31:57.227Z,2.90
2019-01-19T18:34:48.479Z,2.90
2019-01-19T18:37:44.277Z,2.80
2019-01-19T18:40:37.697Z,2.80
2019-01-19T18:43:33.720Z,2.80
2019-01-19T18:46:15.588Z,2.70
2019-01-19T18:49:09.639Z,2.70
2019-01-19T18:51:54.005Z,2.70
2019-01-19T18:54:44.727Z,2.70
2019-01-19T18:57:29.507Z,2.60
2019-01-19T19:00:08.053Z,2.60
2019-01-19T19:02:49.448Z,2.60
2019-01-19T19:05:52.568Z,2.50
2019-01-19T19:08:45.910Z,2.50
2019-01-19T19:11:36.807Z,2.60
2019-01-19T19:14:21.188Z,2.50
2019-01-19T19:17:19.539Z,2.50
2019-01-19T19:20:00.977Z,2.50
2019-01-19T19:22:36.279Z,2.50
2019-01-19T19:25:24.038Z,2.30
2019-01-19T19:27:56.787Z,2.40
2019-01-19T19:30:41.475Z,2.40
2019-01-19T19:33:29.129Z,2.40
2019-01-19T19:36:20.022Z,2.30
2019-01-19T19:38:58.379Z,2.30
2019-01-19T19:42:04.389Z,2.30
2019-01-19T19:44:48.837Z,2.30
2019-01-19T19:47:42.327Z,2.30
2019-01-19T19:50:51.599Z,2.30
2019-01-19T19:53:18.689Z,2.40
2019-01-19T19:55:45.331Z,2.30
2019-01-19T19:58:12.869Z,2.30
2019-01-19T20:00:40.448Z,2.30
2019-01-19T20:03:07.628Z,2.30
2019-01-19T20:05:35.088Z,2.40
2019-01-19T20:08:02.571Z,2.30
2019-01-19T20:10:30.135Z,2.30
2019-01-19T20:12:57.558Z,2.30
2019-01-19T20:15:24.720Z,2.30
2019-01-19T20:17:52.147Z,2.40
2019-01-19T20:20:19.495Z,2.40
2019-01-19T20:22:46.918Z,2.30
2019-01-19T20:25:14.628Z,2.30
2019-01-19T20:27:41.897Z,2.20
2019-01-19T20:30:16.309Z,2.10
2019-01-19T20:32:43.647Z,2.10
2019-01-19T20:35:11.017Z,2.10
2019-01-19T20:37:38.297Z,2.10
2019-01-19T20:40:08.837Z,2.00
2019-01-19T20:42:36.318Z,2.00
2019-01-19T20:45:09.076Z,2.00
2019-01-19T20:47:36.559Z,2.00
2019-01-19T20:50:11.048Z,1.90
2019-01-19T20:52:38.737Z,2.00
2019-01-19T20:55:10.020Z,2.00
2019-01-19T20:57:37.649Z,1.90
2019-01-19T21:00:18.728Z,1.90
2019-01-19T21:02:46.541Z,1.90
2019-01-19T21:05:14.257Z,1.80
2019-01-19T21:07:41.518Z,1.70
2019-01-19T21:10:09.088Z,1.80
2019-01-19T21:12:37.809Z,1.80
2019-01-19T21:15:15.296Z,1.80
2019-01-19T21:17:42.858Z,1.70
2019-01-19T21:20:13.910Z,1.60
2019-01-19T21:22:41.727Z,1.70
2019-01-19T21:25:11.819Z,1.60
2019-01-19T21:27:39.839Z,1.60
2019-01-19T21:30:14.188Z,1.60
2019-01-19T21:32:41.518Z,1.60
2019-01-19T21:35:09.009Z,1.60
2019-01-19T21:37:36.389Z,1.60
2019-01-19T21:40:08.828Z,1.60
2019-01-19T21:42:36.238Z,1.60
2019-01-19T21:45:14.578Z,1.50
2019-01-19T21:47:42.010Z,1.50
2019-01-19T21:50:11.328Z,1.40
2019-01-19T21:52:38.548Z,1.50
2019-01-19T21:55:08.688Z,1.40
2019-01-19T21:57:36.190Z,1.40
2019-01-19T22:00:17.519Z,1.40
2019-01-19T22:02:45.459Z,1.40
2019-01-19T22:05:12.977Z,1.40
2019-01-19T22:07:40.650Z,1.40
2019-01-19T22:10:12.699Z,1.40
2019-01-19T22:12:39.947Z,1.40
2019-01-19T22:15:14.497Z,1.50
2019-01-19T22:17:42.047Z,1.40
2019-01-19T22:20:12.687Z,1.40
2019-01-19T22:22:41.541Z,1.40
2019-01-19T22:25:09.412Z,1.50
2019-01-19T22:27:38.512Z,1.50
2019-01-19T22:30:11.240Z,1.40
2019-01-19T22:32:38.758Z,1.50
2019-01-19T22:35:08.277Z,1.40
2019-01-19T22:37:35.908Z,1.50
2019-01-19T22:40:08.339Z,1.50
2019-01-19T22:42:35.689Z,1.40
2019-01-19T22:45:07.771Z,1.40
2019-01-19T22:47:35.267Z,1.30
2019-01-19T22:50:06.968Z,1.20
2019-01-19T22:52:34.427Z,1.40
2019-01-19T22:55:02.027Z,1.50
2019-01-19T22:57:29.350Z,1.50
2019-01-19T22:59:56.827Z,1.50
2019-01-19T23:02:24.298Z,1.50
2019-01-19T23:04:51.558Z,1.50
2019-01-19T23:07:18.909Z,1.50
2019-01-19T23:09:46.159Z,1.50
2019-01-19T23:12:13.527Z,1.50
2019-01-19T23:14:41.857Z,1.40
2019-01-19T23:17:09.397Z,1.40
2019-01-19T23:19:36.728Z,1.40
2019-01-19T23:22:04.353Z,1.40
2019-01-19T23:24:31.779Z,1.30
2019-01-19T23:27:00.677Z,1.30
2019-01-19T23:29:28.198Z,1.30
2019-01-19T23:31:55.704Z,1.30
2019-01-19T23:34:23.617Z,1.20
2019-01-19T23:36:51.508Z,1.10
2019-01-19T23:39:19.318Z,1.10
2019-01-19T23:41:46.751Z,1.10
2019-01-19T23:44:14.149Z,1.10
2019-01-19T23:46:41.557Z,1.00
2019-01-19T23:49:09.129Z,1.00
2019-01-19T23:51:36.688Z,1.00
2019-01-19T23:54:04.520Z,1.00
2019-01-19T23:56:31.868Z,1.00
2019-01-19T23:59:18.817Z,1.00
